Chokurdakh, Russia
Current Conditions -  °F | °C
As of 10:00 AM on Thursday 18 Dec 2014 (Local Time) from UHMM Reporting Station
Broken Clouds Broken Clouds  
Wind Chill: -24°   Ceiling: 20000
Heat Index: -24°   Visibility: 6mi
Dew Point: -31°   Wind: 0mph
Humidity: 69%   Direction: NA
Pressure: 29.97"   Gusts: NA
Location:  70.62°N, 147.87°E
Report Text: UHMM 172300Z 00000MPS 9999 FEW100 BKN200 M31/M35 Q1015 NOSIGRMK QFE746 88920550
Loading
Personal Weather Stations






























Interactive Weather Map New forecast layout! Learn more

10-Day Weather Forecast

Advertisements
Track Severe Weather on mobile